sensor_id;sensor_type;location;lat;lon;timestamp;P1;durP1;ratioP1;P2;durP2;ratioP2
68718;SDS011;55696;52.138;5.444;2023-09-19T00:00:43;10.47;;;1.70;;
68718;SDS011;55696;52.138;5.444;2023-09-19T00:03:10;8.73;;;1.88;;
68718;SDS011;55696;52.138;5.444;2023-09-19T00:05:38;6.75;;;1.92;;
68718;SDS011;55696;52.138;5.444;2023-09-19T00:08:06;9.40;;;1.95;;
68718;SDS011;55696;52.138;5.444;2023-09-19T00:10:33;5.15;;;1.58;;
68718;SDS011;55696;52.138;5.444;2023-09-19T00:13:04;8.83;;;2.23;;
68718;SDS011;55696;52.138;5.444;2023-09-19T00:15:37;8.52;;;1.52;;
68718;SDS011;55696;52.138;5.444;2023-09-19T00:18:14;6.22;;;1.38;;
68718;SDS011;55696;52.138;5.444;2023-09-19T00:20:41;7.65;;;1.65;;
68718;SDS011;55696;52.138;5.444;2023-09-19T00:23:08;7.15;;;1.95;;
68718;SDS011;55696;52.138;5.444;2023-09-19T00:25:36;8.43;;;1.63;;
68718;SDS011;55696;52.138;5.444;2023-09-19T00:28:04;7.40;;;1.73;;
68718;SDS011;55696;52.138;5.444;2023-09-19T00:30:33;9.40;;;2.65;;
68718;SDS011;55696;52.138;5.444;2023-09-19T00:33:01;4.93;;;1.73;;
68718;SDS011;55696;52.138;5.444;2023-09-19T00:35:33;10.95;;;2.05;;
68718;SDS011;55696;52.138;5.444;2023-09-19T00:38:00;6.97;;;1.70;;
68718;SDS011;55696;52.138;5.444;2023-09-19T00:40:27;7.57;;;2.00;;
68718;SDS011;55696;52.138;5.444;2023-09-19T00:42:56;7.28;;;1.83;;
68718;SDS011;55696;52.138;5.444;2023-09-19T00:45:26;8.13;;;1.90;;
68718;SDS011;55696;52.138;5.444;2023-09-19T00:47:54;5.22;;;1.55;;
68718;SDS011;55696;52.138;5.444;2023-09-19T00:50:24;6.73;;;2.13;;
68718;SDS011;55696;52.138;5.444;2023-09-19T00:52:55;9.48;;;1.77;;
68718;SDS011;55696;52.138;5.444;2023-09-19T00:55:23;5.53;;;1.80;;
68718;SDS011;55696;52.138;5.444;2023-09-19T00:57:51;6.05;;;1.60;;
68718;SDS011;55696;52.138;5.444;2023-09-19T01:00:19;6.63;;;1.90;;
68718;SDS011;55696;52.138;5.444;2023-09-19T01:02:47;8.43;;;1.40;;
68718;SDS011;55696;52.138;5.444;2023-09-19T01:05:14;5.28;;;1.38;;
68718;SDS011;55696;52.138;5.444;2023-09-19T01:07:42;4.40;;;1.45;;
68718;SDS011;55696;52.138;5.444;2023-09-19T01:10:16;9.48;;;1.50;;
68718;SDS011;55696;52.138;5.444;2023-09-19T01:15:45;4.87;;;1.67;;
68718;SDS011;55696;52.138;5.444;2023-09-19T01:21:26;9.27;;;2.00;;
68718;SDS011;55696;52.138;5.444;2023-09-19T01:24:07;5.40;;;1.65;;
68718;SDS011;55696;52.138;5.444;2023-09-19T01:27:02;5.65;;;1.40;;
68718;SDS011;55696;52.138;5.444;2023-09-19T01:29:52;9.80;;;1.80;;
68718;SDS011;55696;52.138;5.444;2023-09-19T01:32:27;9.00;;;1.80;;
68718;SDS011;55696;52.138;5.444;2023-09-19T01:34:55;9.73;;;1.83;;
68718;SDS011;55696;52.138;5.444;2023-09-19T01:37:25;6.55;;;1.70;;
68718;SDS011;55696;52.138;5.444;2023-09-19T01:40:12;6.47;;;1.40;;
68718;SDS011;55696;52.138;5.444;2023-09-19T01:45:33;10.35;;;1.92;;
68718;SDS011;55696;52.138;5.444;2023-09-19T01:48:25;10.88;;;2.25;;
68718;SDS011;55696;52.138;5.444;2023-09-19T01:51:10;7.60;;;2.05;;
68718;SDS011;55696;52.138;5.444;2023-09-19T01:53:50;10.15;;;2.25;;
68718;SDS011;55696;52.138;5.444;2023-09-19T01:56:30;9.03;;;1.93;;
68718;SDS011;55696;52.138;5.444;2023-09-19T01:59:07;8.63;;;1.90;;
68718;SDS011;55696;52.138;5.444;2023-09-19T02:01:39;10.32;;;2.10;;
68718;SDS011;55696;52.138;5.444;2023-09-19T02:04:10;10.40;;;2.13;;
68718;SDS011;55696;52.138;5.444;2023-09-19T02:06:40;12.18;;;2.08;;
68718;SDS011;55696;52.138;5.444;2023-09-19T02:09:08;8.77;;;2.07;;
68718;SDS011;55696;52.138;5.444;2023-09-19T02:11:35;5.70;;;2.13;;
68718;SDS011;55696;52.138;5.444;2023-09-19T02:14:03;11.60;;;2.30;;
68718;SDS011;55696;52.138;5.444;2023-09-19T02:16:34;11.32;;;2.15;;
68718;SDS011;55696;52.138;5.444;2023-09-19T02:19:02;13.43;;;2.28;;
68718;SDS011;55696;52.138;5.444;2023-09-19T02:21:32;8.13;;;2.10;;
68718;SDS011;55696;52.138;5.444;2023-09-19T02:24:00;7.15;;;1.80;;
68718;SDS011;55696;52.138;5.444;2023-09-19T02:26:27;13.10;;;2.60;;
68718;SDS011;55696;52.138;5.444;2023-09-19T02:28:54;16.83;;;2.38;;
68718;SDS011;55696;52.138;5.444;2023-09-19T02:31:21;13.85;;;2.42;;
68718;SDS011;55696;52.138;5.444;2023-09-19T02:33:48;14.13;;;2.03;;
68718;SDS011;55696;52.138;5.444;2023-09-19T02:36:15;13.40;;;2.70;;
68718;SDS011;55696;52.138;5.444;2023-09-19T02:38:43;9.70;;;2.10;;
68718;SDS011;55696;52.138;5.444;2023-09-19T02:41:10;8.18;;;1.80;;
68718;SDS011;55696;52.138;5.444;2023-09-19T02:43:37;10.90;;;2.28;;
68718;SDS011;55696;52.138;5.444;2023-09-19T02:46:05;13.60;;;2.30;;
68718;SDS011;55696;52.138;5.444;2023-09-19T02:48:32;8.88;;;1.80;;
68718;SDS011;55696;52.138;5.444;2023-09-19T02:51:00;11.90;;;2.45;;
68718;SDS011;55696;52.138;5.444;2023-09-19T02:53:27;11.93;;;2.28;;
68718;SDS011;55696;52.138;5.444;2023-09-19T02:55:54;11.95;;;2.30;;
68718;SDS011;55696;52.138;5.444;2023-09-19T02:58:22;9.57;;;2.53;;
68718;SDS011;55696;52.138;5.444;2023-09-19T03:00:51;11.57;;;2.00;;
68718;SDS011;55696;52.138;5.444;2023-09-19T03:03:18;13.85;;;2.28;;
68718;SDS011;55696;52.138;5.444;2023-09-19T03:05:45;12.70;;;2.47;;
68718;SDS011;55696;52.138;5.444;2023-09-19T03:08:15;12.98;;;2.28;;
68718;SDS011;55696;52.138;5.444;2023-09-19T03:10:42;12.43;;;2.50;;
68718;SDS011;55696;52.138;5.444;2023-09-19T03:13:12;11.70;;;2.22;;
68718;SDS011;55696;52.138;5.444;2023-09-19T03:15:42;13.13;;;2.22;;
68718;SDS011;55696;52.138;5.444;2023-09-19T03:18:20;14.27;;;1.95;;
68718;SDS011;55696;52.138;5.444;2023-09-19T03:20:57;16.05;;;2.72;;
68718;SDS011;55696;52.138;5.444;2023-09-19T03:23:28;12.23;;;3.03;;
68718;SDS011;55696;52.138;5.444;2023-09-19T03:25:55;11.48;;;2.22;;
68718;SDS011;55696;52.138;5.444;2023-09-19T03:28:22;11.13;;;2.45;;
68718;SDS011;55696;52.138;5.444;2023-09-19T03:31:03;13.20;;;2.45;;
68718;SDS011;55696;52.138;5.444;2023-09-19T03:33:33;12.88;;;2.30;;
68718;SDS011;55696;52.138;5.444;2023-09-19T03:36:01;8.53;;;2.10;;
68718;SDS011;55696;52.138;5.444;2023-09-19T03:38:32;10.20;;;2.33;;
68718;SDS011;55696;52.138;5.444;2023-09-19T03:41:01;16.58;;;2.30;;
68718;SDS011;55696;52.138;5.444;2023-09-19T03:43:28;13.57;;;2.33;;
68718;SDS011;55696;52.138;5.444;2023-09-19T03:45:55;13.23;;;2.97;;
68718;SDS011;55696;52.138;5.444;2023-09-19T03:48:22;11.17;;;2.30;;
68718;SDS011;55696;52.138;5.444;2023-09-19T03:50:50;11.95;;;3.00;;
68718;SDS011;55696;52.138;5.444;2023-09-19T03:53:18;8.02;;;2.20;;
68718;SDS011;55696;52.138;5.444;2023-09-19T03:55:45;8.23;;;1.98;;
68718;SDS011;55696;52.138;5.444;2023-09-19T03:58:13;12.48;;;2.35;;
68718;SDS011;55696;52.138;5.444;2023-09-19T04:00:40;18.80;;;1.93;;
68718;SDS011;55696;52.138;5.444;2023-09-19T04:03:07;15.90;;;2.35;;
68718;SDS011;55696;52.138;5.444;2023-09-19T04:05:34;11.32;;;2.38;;
68718;SDS011;55696;52.138;5.444;2023-09-19T04:08:01;11.90;;;2.30;;
68718;SDS011;55696;52.138;5.444;2023-09-19T04:10:28;7.60;;;2.17;;
68718;SDS011;55696;52.138;5.444;2023-09-19T04:12:55;12.60;;;2.37;;
68718;SDS011;55696;52.138;5.444;2023-09-19T04:15:23;8.95;;;2.25;;
68718;SDS011;55696;52.138;5.444;2023-09-19T04:17:53;12.40;;;2.22;;
68718;SDS011;55696;52.138;5.444;2023-09-19T04:20:20;7.25;;;2.30;;
68718;SDS011;55696;52.138;5.444;2023-09-19T04:22:49;11.23;;;2.08;;
68718;SDS011;55696;52.138;5.444;2023-09-19T04:25:16;7.90;;;2.30;;
68718;SDS011;55696;52.138;5.444;2023-09-19T04:27:44;8.45;;;2.28;;
68718;SDS011;55696;52.138;5.444;2023-09-19T04:30:11;15.68;;;2.38;;
68718;SDS011;55696;52.138;5.444;2023-09-19T04:32:38;9.07;;;2.20;;
68718;SDS011;55696;52.138;5.444;2023-09-19T04:35:09;9.73;;;1.95;;
68718;SDS011;55696;52.138;5.444;2023-09-19T04:37:40;14.73;;;2.40;;
68718;SDS011;55696;52.138;5.444;2023-09-19T04:40:10;9.68;;;2.10;;
68718;SDS011;55696;52.138;5.444;2023-09-19T04:42:44;9.05;;;1.77;;
68718;SDS011;55696;52.138;5.444;2023-09-19T04:45:10;10.57;;;2.20;;
68718;SDS011;55696;52.138;5.444;2023-09-19T04:47:38;13.57;;;2.50;;
68718;SDS011;55696;52.138;5.444;2023-09-19T04:50:06;9.67;;;1.90;;
68718;SDS011;55696;52.138;5.444;2023-09-19T04:52:41;13.30;;;1.92;;
68718;SDS011;55696;52.138;5.444;2023-09-19T04:55:12;10.15;;;2.20;;
68718;SDS011;55696;52.138;5.444;2023-09-19T04:57:46;9.07;;;2.47;;
68718;SDS011;55696;52.138;5.444;2023-09-19T05:00:17;9.73;;;2.00;;
68718;SDS011;55696;52.138;5.444;2023-09-19T05:02:45;9.90;;;1.90;;
68718;SDS011;55696;52.138;5.444;2023-09-19T05:05:15;10.02;;;2.22;;
68718;SDS011;55696;52.138;5.444;2023-09-19T05:07:43;8.43;;;2.08;;
68718;SDS011;55696;52.138;5.444;2023-09-19T05:10:10;10.88;;;2.00;;
68718;SDS011;55696;52.138;5.444;2023-09-19T05:12:38;7.50;;;2.38;;
68718;SDS011;55696;52.138;5.444;2023-09-19T05:15:06;11.60;;;1.90;;
68718;SDS011;55696;52.138;5.444;2023-09-19T05:17:34;12.70;;;1.98;;
68718;SDS011;55696;52.138;5.444;2023-09-19T05:20:01;8.07;;;2.20;;
68718;SDS011;55696;52.138;5.444;2023-09-19T05:22:41;8.82;;;2.65;;
68718;SDS011;55696;52.138;5.444;2023-09-19T05:25:09;10.38;;;2.20;;
68718;SDS011;55696;52.138;5.444;2023-09-19T05:27:37;14.47;;;2.50;;
68718;SDS011;55696;52.138;5.444;2023-09-19T05:30:04;9.27;;;2.20;;
68718;SDS011;55696;52.138;5.444;2023-09-19T05:32:31;14.77;;;2.30;;
68718;SDS011;55696;52.138;5.444;2023-09-19T05:34:58;15.13;;;2.40;;
68718;SDS011;55696;52.138;5.444;2023-09-19T05:37:24;10.55;;;1.90;;
68718;SDS011;55696;52.138;5.444;2023-09-19T05:39:52;8.57;;;1.83;;
68718;SDS011;55696;52.138;5.444;2023-09-19T05:42:20;12.07;;;2.20;;
68718;SDS011;55696;52.138;5.444;2023-09-19T05:44:46;14.35;;;2.60;;
68718;SDS011;55696;52.138;5.444;2023-09-19T05:47:13;11.85;;;2.15;;
68718;SDS011;55696;52.138;5.444;2023-09-19T05:49:40;6.88;;;1.95;;
68718;SDS011;55696;52.138;5.444;2023-09-19T05:52:07;10.70;;;2.70;;
68718;SDS011;55696;52.138;5.444;2023-09-19T05:54:34;11.30;;;2.40;;
68718;SDS011;55696;52.138;5.444;2023-09-19T05:57:01;11.95;;;2.30;;
68718;SDS011;55696;52.138;5.444;2023-09-19T05:59:28;9.30;;;2.35;;
68718;SDS011;55696;52.138;5.444;2023-09-19T06:01:55;10.30;;;1.80;;
68718;SDS011;55696;52.138;5.444;2023-09-19T06:04:22;12.23;;;2.10;;
68718;SDS011;55696;52.138;5.444;2023-09-19T06:06:49;10.88;;;2.35;;
68718;SDS011;55696;52.138;5.444;2023-09-19T06:09:16;10.95;;;2.88;;
68718;SDS011;55696;52.138;5.444;2023-09-19T06:11:43;9.93;;;2.20;;
68718;SDS011;55696;52.138;5.444;2023-09-19T06:14:10;10.25;;;2.25;;
68718;SDS011;55696;52.138;5.444;2023-09-19T06:16:38;14.93;;;2.37;;
68718;SDS011;55696;52.138;5.444;2023-09-19T06:19:05;14.88;;;2.65;;
68718;SDS011;55696;52.138;5.444;2023-09-19T06:21:35;8.45;;;2.03;;
68718;SDS011;55696;52.138;5.444;2023-09-19T06:24:02;12.35;;;2.47;;
68718;SDS011;55696;52.138;5.444;2023-09-19T06:26:29;10.82;;;2.65;;
68718;SDS011;55696;52.138;5.444;2023-09-19T06:28:57;9.57;;;2.07;;
68718;SDS011;55696;52.138;5.444;2023-09-19T06:31:26;10.02;;;1.98;;
68718;SDS011;55696;52.138;5.444;2023-09-19T06:33:53;11.95;;;2.38;;
68718;SDS011;55696;52.138;5.444;2023-09-19T06:36:20;8.50;;;1.60;;
68718;SDS011;55696;52.138;5.444;2023-09-19T06:38:47;8.73;;;1.77;;
68718;SDS011;55696;52.138;5.444;2023-09-19T06:41:14;13.93;;;2.03;;
68718;SDS011;55696;52.138;5.444;2023-09-19T06:43:43;9.68;;;2.13;;
68718;SDS011;55696;52.138;5.444;2023-09-19T06:46:10;9.57;;;2.38;;
68718;SDS011;55696;52.138;5.444;2023-09-19T06:48:39;15.48;;;2.72;;
68718;SDS011;55696;52.138;5.444;2023-09-19T06:51:06;9.88;;;2.20;;
68718;SDS011;55696;52.138;5.444;2023-09-19T06:53:34;8.73;;;2.50;;
68718;SDS011;55696;52.138;5.444;2023-09-19T06:56:02;8.73;;;2.03;;
68718;SDS011;55696;52.138;5.444;2023-09-19T06:58:29;12.45;;;2.33;;
68718;SDS011;55696;52.138;5.444;2023-09-19T07:00:57;13.10;;;2.78;;
68718;SDS011;55696;52.138;5.444;2023-09-19T07:03:24;11.93;;;2.30;;
68718;SDS011;55696;52.138;5.444;2023-09-19T07:05:53;12.00;;;2.07;;
68718;SDS011;55696;52.138;5.444;2023-09-19T07:08:22;10.38;;;2.28;;
68718;SDS011;55696;52.138;5.444;2023-09-19T07:10:49;12.40;;;2.33;;
68718;SDS011;55696;52.138;5.444;2023-09-19T07:13:16;11.23;;;2.28;;
68718;SDS011;55696;52.138;5.444;2023-09-19T07:15:43;16.90;;;3.10;;
68718;SDS011;55696;52.138;5.444;2023-09-19T07:18:14;21.23;;;2.77;;
68718;SDS011;55696;52.138;5.444;2023-09-19T07:20:43;12.43;;;2.45;;
68718;SDS011;55696;52.138;5.444;2023-09-19T07:23:18;10.02;;;2.30;;
68718;SDS011;55696;52.138;5.444;2023-09-19T07:25:48;10.80;;;2.45;;
68718;SDS011;55696;52.138;5.444;2023-09-19T07:28:16;11.85;;;2.92;;
68718;SDS011;55696;52.138;5.444;2023-09-19T07:30:43;12.43;;;2.40;;
68718;SDS011;55696;52.138;5.444;2023-09-19T07:33:10;13.05;;;1.95;;
68718;SDS011;55696;52.138;5.444;2023-09-19T07:35:38;9.13;;;2.00;;
68718;SDS011;55696;52.138;5.444;2023-09-19T07:38:08;13.95;;;3.50;;
68718;SDS011;55696;52.138;5.444;2023-09-19T07:40:37;13.30;;;1.90;;
68718;SDS011;55696;52.138;5.444;2023-09-19T07:43:04;10.47;;;2.03;;
68718;SDS011;55696;52.138;5.444;2023-09-19T07:45:33;13.10;;;2.20;;
68718;SDS011;55696;52.138;5.444;2023-09-19T07:48:00;8.50;;;2.42;;
68718;SDS011;55696;52.138;5.444;2023-09-19T07:50:33;16.95;;;2.15;;
68718;SDS011;55696;52.138;5.444;2023-09-19T07:53:03;9.57;;;2.50;;
68718;SDS011;55696;52.138;5.444;2023-09-19T07:55:31;10.47;;;2.93;;
68718;SDS011;55696;52.138;5.444;2023-09-19T07:58:00;10.68;;;2.33;;
68718;SDS011;55696;52.138;5.444;2023-09-19T08:00:30;21.85;;;3.10;;
68718;SDS011;55696;52.138;5.444;2023-09-19T08:02:58;10.00;;;2.67;;
68718;SDS011;55696;52.138;5.444;2023-09-19T08:05:33;11.98;;;2.30;;
68718;SDS011;55696;52.138;5.444;2023-09-19T08:08:00;13.63;;;2.80;;
68718;SDS011;55696;52.138;5.444;2023-09-19T08:10:27;14.90;;;2.50;;
68718;SDS011;55696;52.138;5.444;2023-09-19T08:13:02;13.90;;;2.55;;
68718;SDS011;55696;52.138;5.444;2023-09-19T08:15:29;11.88;;;2.40;;
68718;SDS011;55696;52.138;5.444;2023-09-19T08:17:55;13.80;;;2.45;;
68718;SDS011;55696;52.138;5.444;2023-09-19T08:20:22;10.33;;;2.43;;
68718;SDS011;55696;52.138;5.444;2023-09-19T08:22:50;15.38;;;2.42;;
68718;SDS011;55696;52.138;5.444;2023-09-19T08:25:21;12.23;;;2.40;;
68718;SDS011;55696;52.138;5.444;2023-09-19T08:27:49;14.80;;;2.63;;
68718;SDS011;55696;52.138;5.444;2023-09-19T08:30:17;10.77;;;2.28;;
68718;SDS011;55696;52.138;5.444;2023-09-19T08:32:50;11.90;;;2.73;;
68718;SDS011;55696;52.138;5.444;2023-09-19T08:35:17;17.02;;;2.88;;
68718;SDS011;55696;52.138;5.444;2023-09-19T08:37:44;13.65;;;2.67;;
68718;SDS011;55696;52.138;5.444;2023-09-19T08:40:14;12.85;;;2.90;;
68718;SDS011;55696;52.138;5.444;2023-09-19T08:43:15;13.10;;;3.03;;
68718;SDS011;55696;52.138;5.444;2023-09-19T08:45:34;12.47;;;2.37;;
68718;SDS011;55696;52.138;5.444;2023-09-19T08:48:08;11.48;;;3.00;;
68718;SDS011;55696;52.138;5.444;2023-09-19T08:50:51;19.13;;;3.35;;
68718;SDS011;55696;52.138;5.444;2023-09-19T08:53:34;14.65;;;2.63;;
68718;SDS011;55696;52.138;5.444;2023-09-19T08:56:16;14.00;;;2.75;;
68718;SDS011;55696;52.138;5.444;2023-09-19T08:58:50;11.37;;;2.63;;
68718;SDS011;55696;52.138;5.444;2023-09-19T09:01:20;19.63;;;2.90;;
68718;SDS011;55696;52.138;5.444;2023-09-19T09:03:59;15.02;;;2.90;;
68718;SDS011;55696;52.138;5.444;2023-09-19T09:06:29;14.07;;;2.67;;
68718;SDS011;55696;52.138;5.444;2023-09-19T09:08:56;10.90;;;2.50;;
68718;SDS011;55696;52.138;5.444;2023-09-19T09:11:22;17.50;;;2.20;;
68718;SDS011;55696;52.138;5.444;2023-09-19T09:13:51;11.77;;;2.90;;
68718;SDS011;55696;52.138;5.444;2023-09-19T09:16:18;14.27;;;2.50;;
68718;SDS011;55696;52.138;5.444;2023-09-19T09:18:46;10.75;;;2.22;;
68718;SDS011;55696;52.138;5.444;2023-09-19T09:21:20;9.60;;;2.33;;
68718;SDS011;55696;52.138;5.444;2023-09-19T09:23:48;17.70;;;3.27;;
68718;SDS011;55696;52.138;5.444;2023-09-19T09:26:22;15.23;;;2.40;;
68718;SDS011;55696;52.138;5.444;2023-09-19T09:29:08;14.25;;;2.83;;
68718;SDS011;55696;52.138;5.444;2023-09-19T09:31:35;18.10;;;2.42;;
68718;SDS011;55696;52.138;5.444;2023-09-19T09:34:04;14.23;;;2.30;;
68718;SDS011;55696;52.138;5.444;2023-09-19T09:36:35;8.87;;;2.63;;
68718;SDS011;55696;52.138;5.444;2023-09-19T09:39:03;13.63;;;2.17;;
68718;SDS011;55696;52.138;5.444;2023-09-19T09:41:42;14.98;;;2.95;;
68718;SDS011;55696;52.138;5.444;2023-09-19T09:44:13;14.52;;;3.47;;
68718;SDS011;55696;52.138;5.444;2023-09-19T09:46:45;14.77;;;3.00;;
68718;SDS011;55696;52.138;5.444;2023-09-19T09:49:25;15.63;;;2.83;;
68718;SDS011;55696;52.138;5.444;2023-09-19T09:52:01;14.32;;;2.50;;
68718;SDS011;55696;52.138;5.444;2023-09-19T09:54:59;9.98;;;2.35;;
68718;SDS011;55696;52.138;5.444;2023-09-19T09:57:28;11.93;;;2.35;;
68718;SDS011;55696;52.138;5.444;2023-09-19T09:59:58;10.88;;;2.45;;
68718;SDS011;55696;52.138;5.444;2023-09-19T10:02:38;9.30;;;2.67;;
68718;SDS011;55696;52.138;5.444;2023-09-19T10:08:10;12.07;;;2.63;;
68718;SDS011;55696;52.138;5.444;2023-09-19T10:10:39;14.02;;;2.30;;
68718;SDS011;55696;52.138;5.444;2023-09-19T10:13:10;13.10;;;2.83;;
68718;SDS011;55696;52.138;5.444;2023-09-19T10:15:40;15.57;;;2.37;;
68718;SDS011;55696;52.138;5.444;2023-09-19T10:18:15;13.63;;;3.17;;
68718;SDS011;55696;52.138;5.444;2023-09-19T10:20:46;14.05;;;2.88;;
68718;SDS011;55696;52.138;5.444;2023-09-19T10:23:17;11.00;;;2.30;;
68718;SDS011;55696;52.138;5.444;2023-09-19T10:25:52;12.82;;;2.33;;
68718;SDS011;55696;52.138;5.444;2023-09-19T10:28:20;12.43;;;2.20;;
68718;SDS011;55696;52.138;5.444;2023-09-19T10:30:51;15.63;;;2.60;;
68718;SDS011;55696;52.138;5.444;2023-09-19T10:33:23;12.15;;;2.55;;
68718;SDS011;55696;52.138;5.444;2023-09-19T10:35:53;12.00;;;2.20;;
68718;SDS011;55696;52.138;5.444;2023-09-19T10:38:26;10.57;;;2.40;;
68718;SDS011;55696;52.138;5.444;2023-09-19T10:40:55;12.50;;;2.50;;
68718;SDS011;55696;52.138;5.444;2023-09-19T10:43:31;8.88;;;2.40;;
68718;SDS011;55696;52.138;5.444;2023-09-19T10:46:02;14.32;;;2.90;;
68718;SDS011;55696;52.138;5.444;2023-09-19T10:48:34;9.60;;;1.98;;
68718;SDS011;55696;52.138;5.444;2023-09-19T10:51:06;9.52;;;2.00;;
68718;SDS011;55696;52.138;5.444;2023-09-19T10:53:54;7.93;;;2.10;;
68718;SDS011;55696;52.138;5.444;2023-09-19T10:56:42;12.35;;;2.08;;
68718;SDS011;55696;52.138;5.444;2023-09-19T10:59:16;12.82;;;2.10;;
68718;SDS011;55696;52.138;5.444;2023-09-19T11:01:45;12.45;;;2.40;;
68718;SDS011;55696;52.138;5.444;2023-09-19T11:04:33;11.93;;;2.28;;
68718;SDS011;55696;52.138;5.444;2023-09-19T11:07:05;9.67;;;1.87;;
68718;SDS011;55696;52.138;5.444;2023-09-19T11:09:53;10.80;;;2.20;;
68718;SDS011;55696;52.138;5.444;2023-09-19T11:16:02;8.82;;;1.80;;
68718;SDS011;55696;52.138;5.444;2023-09-19T11:26:51;12.05;;;2.10;;
68718;SDS011;55696;52.138;5.444;2023-09-19T11:29:29;7.22;;;1.98;;
68718;SDS011;55696;52.138;5.444;2023-09-19T11:31:57;10.98;;;1.73;;
68718;SDS011;55696;52.138;5.444;2023-09-19T11:39:40;5.88;;;1.70;;
68718;SDS011;55696;52.138;5.444;2023-09-19T11:48:23;11.03;;;1.90;;
68718;SDS011;55696;52.138;5.444;2023-09-19T11:50:53;11.75;;;2.25;;
68718;SDS011;55696;52.138;5.444;2023-09-19T11:53:21;11.50;;;2.20;;
68718;SDS011;55696;52.138;5.444;2023-09-19T11:55:50;7.43;;;1.70;;
68718;SDS011;55696;52.138;5.444;2023-09-19T11:58:19;8.50;;;1.73;;
68718;SDS011;55696;52.138;5.444;2023-09-19T12:00:46;8.00;;;1.57;;
68718;SDS011;55696;52.138;5.444;2023-09-19T12:03:21;7.15;;;1.50;;
68718;SDS011;55696;52.138;5.444;2023-09-19T12:05:49;6.65;;;1.77;;
68718;SDS011;55696;52.138;5.444;2023-09-19T12:08:15;6.57;;;1.58;;
68718;SDS011;55696;52.138;5.444;2023-09-19T12:10:50;11.68;;;2.00;;
68718;SDS011;55696;52.138;5.444;2023-09-19T12:13:20;5.17;;;1.43;;
68718;SDS011;55696;52.138;5.444;2023-09-19T12:15:47;8.45;;;1.50;;
68718;SDS011;55696;52.138;5.444;2023-09-19T12:18:27;5.40;;;1.50;;
68718;SDS011;55696;52.138;5.444;2023-09-19T12:20:54;9.50;;;1.20;;
68718;SDS011;55696;52.138;5.444;2023-09-19T12:23:22;5.65;;;1.40;;
68718;SDS011;55696;52.138;5.444;2023-09-19T12:25:49;5.43;;;1.27;;
68718;SDS011;55696;52.138;5.444;2023-09-19T12:28:19;6.00;;;1.15;;
68718;SDS011;55696;52.138;5.444;2023-09-19T12:30:48;7.53;;;1.42;;
68718;SDS011;55696;52.138;5.444;2023-09-19T12:33:19;6.03;;;1.90;;
68718;SDS011;55696;52.138;5.444;2023-09-19T12:35:47;7.63;;;2.20;;
68718;SDS011;55696;52.138;5.444;2023-09-19T12:38:26;9.63;;;1.60;;
68718;SDS011;55696;52.138;5.444;2023-09-19T12:41:01;6.00;;;1.80;;
68718;SDS011;55696;52.138;5.444;2023-09-19T12:43:29;5.38;;;1.30;;
68718;SDS011;55696;52.138;5.444;2023-09-19T12:45:59;3.10;;;1.10;;
68718;SDS011;55696;52.138;5.444;2023-09-19T12:48:27;9.75;;;1.40;;
68718;SDS011;55696;52.138;5.444;2023-09-19T12:53:43;7.00;;;1.33;;
68718;SDS011;55696;52.138;5.444;2023-09-19T12:56:13;7.07;;;1.15;;
68718;SDS011;55696;52.138;5.444;2023-09-19T12:58:48;6.13;;;1.42;;
68718;SDS011;55696;52.138;5.444;2023-09-19T13:01:23;5.85;;;1.33;;
68718;SDS011;55696;52.138;5.444;2023-09-19T13:06:48;4.32;;;1.20;;
68718;SDS011;55696;52.138;5.444;2023-09-19T13:09:17;5.82;;;1.15;;
68718;SDS011;55696;52.138;5.444;2023-09-19T13:11:46;5.68;;;1.33;;
68718;SDS011;55696;52.138;5.444;2023-09-19T13:14:20;6.03;;;1.17;;
68718;SDS011;55696;52.138;5.444;2023-09-19T13:19:36;7.00;;;1.40;;
68718;SDS011;55696;52.138;5.444;2023-09-19T13:22:39;5.97;;;1.40;;
68718;SDS011;55696;52.138;5.444;2023-09-19T13:25:09;4.85;;;1.25;;
68718;SDS011;55696;52.138;5.444;2023-09-19T13:27:41;6.97;;;1.42;;
68718;SDS011;55696;52.138;5.444;2023-09-19T13:30:11;7.73;;;1.53;;
68718;SDS011;55696;52.138;5.444;2023-09-19T13:32:38;4.70;;;1.70;;
68718;SDS011;55696;52.138;5.444;2023-09-19T13:35:07;6.65;;;1.40;;
68718;SDS011;55696;52.138;5.444;2023-09-19T13:37:35;4.72;;;1.30;;
68718;SDS011;55696;52.138;5.444;2023-09-19T13:40:10;5.65;;;1.45;;
68718;SDS011;55696;52.138;5.444;2023-09-19T13:42:38;9.67;;;1.63;;
68718;SDS011;55696;52.138;5.444;2023-09-19T13:45:08;6.97;;;1.48;;
68718;SDS011;55696;52.138;5.444;2023-09-19T13:47:38;4.15;;;1.20;;
68718;SDS011;55696;52.138;5.444;2023-09-19T13:50:06;12.65;;;1.60;;
68718;SDS011;55696;52.138;5.444;2023-09-19T13:52:34;4.60;;;1.10;;
68718;SDS011;55696;52.138;5.444;2023-09-19T13:55:00;6.87;;;1.33;;
68718;SDS011;55696;52.138;5.444;2023-09-19T13:57:27;4.15;;;1.17;;
68718;SDS011;55696;52.138;5.444;2023-09-19T13:59:55;8.40;;;1.88;;
68718;SDS011;55696;52.138;5.444;2023-09-19T14:02:22;5.55;;;1.35;;
68718;SDS011;55696;52.138;5.444;2023-09-19T14:04:50;5.63;;;1.20;;
68718;SDS011;55696;52.138;5.444;2023-09-19T14:07:21;4.97;;;1.10;;
68718;SDS011;55696;52.138;5.444;2023-09-19T14:09:48;7.85;;;1.20;;
68718;SDS011;55696;52.138;5.444;2023-09-19T14:12:15;6.43;;;1.95;;
68718;SDS011;55696;52.138;5.444;2023-09-19T14:14:42;5.00;;;1.20;;
68718;SDS011;55696;52.138;5.444;2023-09-19T14:17:09;7.63;;;1.35;;
68718;SDS011;55696;52.138;5.444;2023-09-19T14:19:36;6.50;;;1.17;;
68718;SDS011;55696;52.138;5.444;2023-09-19T14:22:04;5.00;;;1.48;;
68718;SDS011;55696;52.138;5.444;2023-09-19T14:24:34;4.38;;;1.40;;
68718;SDS011;55696;52.138;5.444;2023-09-19T14:27:01;6.30;;;1.55;;
68718;SDS011;55696;52.138;5.444;2023-09-19T14:29:30;6.82;;;1.80;;
68718;SDS011;55696;52.138;5.444;2023-09-19T14:31:58;6.03;;;1.50;;
68718;SDS011;55696;52.138;5.444;2023-09-19T14:34:25;5.53;;;1.45;;
68718;SDS011;55696;52.138;5.444;2023-09-19T14:36:53;5.07;;;1.35;;
68718;SDS011;55696;52.138;5.444;2023-09-19T14:39:21;4.05;;;1.35;;
68718;SDS011;55696;52.138;5.444;2023-09-19T14:41:48;6.70;;;1.88;;
68718;SDS011;55696;52.138;5.444;2023-09-19T14:44:15;5.80;;;2.10;;
68718;SDS011;55696;52.138;5.444;2023-09-19T14:46:46;4.05;;;1.60;;
68718;SDS011;55696;52.138;5.444;2023-09-19T14:49:13;5.22;;;2.00;;
68718;SDS011;55696;52.138;5.444;2023-09-19T14:51:41;9.23;;;2.58;;
68718;SDS011;55696;52.138;5.444;2023-09-19T14:54:13;7.47;;;2.42;;
68718;SDS011;55696;52.138;5.444;2023-09-19T14:56:44;8.27;;;1.60;;
68718;SDS011;55696;52.138;5.444;2023-09-19T14:59:11;5.75;;;1.67;;
68718;SDS011;55696;52.138;5.444;2023-09-19T15:01:39;8.75;;;2.05;;
68718;SDS011;55696;52.138;5.444;2023-09-19T15:04:07;5.68;;;1.95;;
68718;SDS011;55696;52.138;5.444;2023-09-19T15:06:35;7.82;;;2.20;;
68718;SDS011;55696;52.138;5.444;2023-09-19T15:09:02;6.63;;;1.97;;
68718;SDS011;55696;52.138;5.444;2023-09-19T15:11:31;7.72;;;1.70;;
68718;SDS011;55696;52.138;5.444;2023-09-19T15:13:58;5.05;;;2.00;;
68718;SDS011;55696;52.138;5.444;2023-09-19T15:16:25;6.75;;;1.75;;
68718;SDS011;55696;52.138;5.444;2023-09-19T15:18:52;7.03;;;1.90;;
68718;SDS011;55696;52.138;5.444;2023-09-19T15:21:19;8.10;;;2.03;;
68718;SDS011;55696;52.138;5.444;2023-09-19T15:23:45;8.32;;;1.60;;
68718;SDS011;55696;52.138;5.444;2023-09-19T15:26:13;5.45;;;1.98;;
68718;SDS011;55696;52.138;5.444;2023-09-19T15:28:47;11.23;;;1.67;;
68718;SDS011;55696;52.138;5.444;2023-09-19T15:31:14;8.30;;;2.13;;
68718;SDS011;55696;52.138;5.444;2023-09-19T15:33:41;10.00;;;1.80;;
68718;SDS011;55696;52.138;5.444;2023-09-19T15:36:14;6.60;;;1.85;;
68718;SDS011;55696;52.138;5.444;2023-09-19T15:38:59;9.27;;;2.17;;
68718;SDS011;55696;52.138;5.444;2023-09-19T15:41:33;6.07;;;1.92;;